sensor_id;sensor_type;location;lat;lon;timestamp;temperature;humidity
10702;DHT22;5402;50.004;8.246;2023-04-24T00:00:51;11.10;99.90
10702;DHT22;5402;50.004;8.246;2023-04-24T00:03:18;11.10;99.90
10702;DHT22;5402;50.004;8.246;2023-04-24T00:05:46;11.00;99.90
10702;DHT22;5402;50.004;8.246;2023-04-24T00:08:13;11.10;99.90
10702;DHT22;5402;50.004;8.246;2023-04-24T00:10:40;11.10;99.90
10702;DHT22;5402;50.004;8.246;2023-04-24T00:13:08;11.10;99.90
10702;DHT22;5402;50.004;8.246;2023-04-24T00:15:41;11.10;99.90
10702;DHT22;5402;50.004;8.246;2023-04-24T00:18:08;11.00;99.90
10702;DHT22;5402;50.004;8.246;2023-04-24T00:20:34;11.00;99.90
10702;DHT22;5402;50.004;8.246;2023-04-24T00:23:02;11.00;99.90
10702;DHT22;5402;50.004;8.246;2023-04-24T00:25:28;11.00;99.90
10702;DHT22;5402;50.004;8.246;2023-04-24T00:27:55;11.00;99.90
10702;DHT22;5402;50.004;8.246;2023-04-24T00:30:23;11.00;99.90
10702;DHT22;5402;50.004;8.246;2023-04-24T00:32:50;11.10;99.90
10702;DHT22;5402;50.004;8.246;2023-04-24T00:35:17;11.10;99.90
10702;DHT22;5402;50.004;8.246;2023-04-24T00:37:45;11.20;99.90
10702;DHT22;5402;50.004;8.246;2023-04-24T00:40:12;11.10;99.90
10702;DHT22;5402;50.004;8.246;2023-04-24T00:42:39;11.10;99.90
10702;DHT22;5402;50.004;8.246;2023-04-24T00:45:07;11.10;99.90
10702;DHT22;5402;50.004;8.246;2023-04-24T00:47:36;11.10;99.90
10702;DHT22;5402;50.004;8.246;2023-04-24T00:50:05;11.00;99.90
10702;DHT22;5402;50.004;8.246;2023-04-24T00:52:32;11.00;99.90
10702;DHT22;5402;50.004;8.246;2023-04-24T00:54:59;11.10;99.90
10702;DHT22;5402;50.004;8.246;2023-04-24T00:57:26;11.20;99.90
10702;DHT22;5402;50.004;8.246;2023-04-24T00:59:53;11.00;99.90
10702;DHT22;5402;50.004;8.246;2023-04-24T01:02:21;11.00;99.90
10702;DHT22;5402;50.004;8.246;2023-04-24T01:04:50;11.00;99.90
10702;DHT22;5402;50.004;8.246;2023-04-24T01:07:18;10.90;99.90
10702;DHT22;5402;50.004;8.246;2023-04-24T01:09:48;10.90;99.90
10702;DHT22;5402;50.004;8.246;2023-04-24T01:12:16;10.90;99.90
10702;DHT22;5402;50.004;8.246;2023-04-24T01:14:43;10.90;99.90
10702;DHT22;5402;50.004;8.246;2023-04-24T01:17:10;11.00;99.90
10702;DHT22;5402;50.004;8.246;2023-04-24T01:19:37;11.00;99.90
10702;DHT22;5402;50.004;8.246;2023-04-24T01:22:09;11.00;99.90
10702;DHT22;5402;50.004;8.246;2023-04-24T01:24:37;11.10;99.90
10702;DHT22;5402;50.004;8.246;2023-04-24T01:27:04;11.20;99.90
10702;DHT22;5402;50.004;8.246;2023-04-24T01:29:30;11.20;99.90
10702;DHT22;5402;50.004;8.246;2023-04-24T01:31:57;11.40;99.90
10702;DHT22;5402;50.004;8.246;2023-04-24T01:34:24;11.20;99.90
10702;DHT22;5402;50.004;8.246;2023-04-24T01:36:51;11.20;99.90
10702;DHT22;5402;50.004;8.246;2023-04-24T01:39:19;11.30;99.90
10702;DHT22;5402;50.004;8.246;2023-04-24T01:41:48;11.20;99.90
10702;DHT22;5402;50.004;8.246;2023-04-24T01:44:16;11.20;99.90
10702;DHT22;5402;50.004;8.246;2023-04-24T01:46:43;11.20;99.90
10702;DHT22;5402;50.004;8.246;2023-04-24T01:49:09;11.20;99.90
10702;DHT22;5402;50.004;8.246;2023-04-24T01:51:36;11.20;99.90
10702;DHT22;5402;50.004;8.246;2023-04-24T01:54:03;11.20;99.90
10702;DHT22;5402;50.004;8.246;2023-04-24T01:56:33;11.20;99.90
10702;DHT22;5402;50.004;8.246;2023-04-24T01:59:00;11.20;99.90
10702;DHT22;5402;50.004;8.246;2023-04-24T02:01:33;11.30;99.90
10702;DHT22;5402;50.004;8.246;2023-04-24T02:04:00;11.30;99.90
10702;DHT22;5402;50.004;8.246;2023-04-24T02:06:27;11.30;99.90
10702;DHT22;5402;50.004;8.246;2023-04-24T02:08:54;11.30;99.90
10702;DHT22;5402;50.004;8.246;2023-04-24T02:11:21;11.30;99.90
10702;DHT22;5402;50.004;8.246;2023-04-24T02:13:49;11.30;99.90
10702;DHT22;5402;50.004;8.246;2023-04-24T02:16:16;11.30;99.90
10702;DHT22;5402;50.004;8.246;2023-04-24T02:18:42;11.30;99.90
10702;DHT22;5402;50.004;8.246;2023-04-24T02:21:09;11.30;99.90
10702;DHT22;5402;50.004;8.246;2023-04-24T02:23:36;11.30;99.90
10702;DHT22;5402;50.004;8.246;2023-04-24T02:26:03;11.20;99.90
10702;DHT22;5402;50.004;8.246;2023-04-24T02:28:29;11.20;99.90
10702;DHT22;5402;50.004;8.246;2023-04-24T02:30:57;11.20;99.90
10702;DHT22;5402;50.004;8.246;2023-04-24T02:33:24;11.10;99.90
10702;DHT22;5402;50.004;8.246;2023-04-24T02:35:51;11.10;99.90
10702;DHT22;5402;50.004;8.246;2023-04-24T02:38:17;11.20;99.90
10702;DHT22;5402;50.004;8.246;2023-04-24T02:40:44;11.00;99.90
10702;DHT22;5402;50.004;8.246;2023-04-24T02:43:11;11.10;99.90
10702;DHT22;5402;50.004;8.246;2023-04-24T02:45:37;11.00;99.90
10702;DHT22;5402;50.004;8.246;2023-04-24T02:48:05;11.10;99.90
10702;DHT22;5402;50.004;8.246;2023-04-24T02:50:32;11.00;99.90
10702;DHT22;5402;50.004;8.246;2023-04-24T02:52:59;11.00;99.90
10702;DHT22;5402;50.004;8.246;2023-04-24T02:55:26;11.30;99.90
10702;DHT22;5402;50.004;8.246;2023-04-24T02:57:53;11.00;99.90
10702;DHT22;5402;50.004;8.246;2023-04-24T03:00:20;11.00;99.90
10702;DHT22;5402;50.004;8.246;2023-04-24T03:02:47;11.00;99.90
10702;DHT22;5402;50.004;8.246;2023-04-24T03:05:16;11.00;99.90
10702;DHT22;5402;50.004;8.246;2023-04-24T03:07:42;11.00;99.90
10702;DHT22;5402;50.004;8.246;2023-04-24T03:10:09;11.00;99.90
10702;DHT22;5402;50.004;8.246;2023-04-24T03:12:36;11.00;99.90
10702;DHT22;5402;50.004;8.246;2023-04-24T03:15:03;11.00;99.90
10702;DHT22;5402;50.004;8.246;2023-04-24T03:17:30;11.00;99.90
10702;DHT22;5402;50.004;8.246;2023-04-24T03:19:57;11.00;99.90
10702;DHT22;5402;50.004;8.246;2023-04-24T03:22:25;11.00;99.90
10702;DHT22;5402;50.004;8.246;2023-04-24T03:24:51;11.00;99.90
10702;DHT22;5402;50.004;8.246;2023-04-24T03:27:18;11.00;99.90
10702;DHT22;5402;50.004;8.246;2023-04-24T03:29:45;11.20;99.90
10702;DHT22;5402;50.004;8.246;2023-04-24T03:32:12;11.00;99.90
10702;DHT22;5402;50.004;8.246;2023-04-24T03:34:38;11.00;99.90
10702;DHT22;5402;50.004;8.246;2023-04-24T03:37:05;11.00;99.90
10702;DHT22;5402;50.004;8.246;2023-04-24T03:39:33;11.00;99.90
10702;DHT22;5402;50.004;8.246;2023-04-24T03:42:00;11.00;99.90
10702;DHT22;5402;50.004;8.246;2023-04-24T03:44:26;11.00;99.90
10702;DHT22;5402;50.004;8.246;2023-04-24T03:46:53;11.00;99.90
10702;DHT22;5402;50.004;8.246;2023-04-24T03:49:20;10.90;99.90
10702;DHT22;5402;50.004;8.246;2023-04-24T03:51:47;10.90;99.90
10702;DHT22;5402;50.004;8.246;2023-04-24T03:54:14;10.90;99.90
10702;DHT22;5402;50.004;8.246;2023-04-24T03:56:42;10.80;99.90
10702;DHT22;5402;50.004;8.246;2023-04-24T03:59:08;10.70;99.90
10702;DHT22;5402;50.004;8.246;2023-04-24T04:01:35;10.60;99.90
10702;DHT22;5402;50.004;8.246;2023-04-24T04:04:03;10.50;99.90
10702;DHT22;5402;50.004;8.246;2023-04-24T04:06:30;10.60;99.90
10702;DHT22;5402;50.004;8.246;2023-04-24T04:08:57;10.40;99.90
10702;DHT22;5402;50.004;8.246;2023-04-24T04:11:24;10.30;99.90
10702;DHT22;5402;50.004;8.246;2023-04-24T04:13:52;10.30;99.90
10702;DHT22;5402;50.004;8.246;2023-04-24T04:16:19;10.20;99.90
10702;DHT22;5402;50.004;8.246;2023-04-24T04:18:45;10.20;99.90
10702;DHT22;5402;50.004;8.246;2023-04-24T04:21:12;10.20;99.90
10702;DHT22;5402;50.004;8.246;2023-04-24T04:23:39;10.20;99.90
10702;DHT22;5402;50.004;8.246;2023-04-24T04:26:06;10.10;99.90
10702;DHT22;5402;50.004;8.246;2023-04-24T04:28:33;10.00;99.90
10702;DHT22;5402;50.004;8.246;2023-04-24T04:31:01;9.90;99.90
10702;DHT22;5402;50.004;8.246;2023-04-24T04:33:28;9.90;99.90
10702;DHT22;5402;50.004;8.246;2023-04-24T04:35:55;9.80;99.90
10702;DHT22;5402;50.004;8.246;2023-04-24T04:38:23;9.90;99.90
10702;DHT22;5402;50.004;8.246;2023-04-24T04:40:49;9.70;99.90
10702;DHT22;5402;50.004;8.246;2023-04-24T04:43:16;9.70;99.90
10702;DHT22;5402;50.004;8.246;2023-04-24T04:45:43;9.60;99.90
10702;DHT22;5402;50.004;8.246;2023-04-24T04:48:11;9.50;99.90
10702;DHT22;5402;50.004;8.246;2023-04-24T04:50:39;9.50;99.90
10702;DHT22;5402;50.004;8.246;2023-04-24T04:53:05;9.40;99.90
10702;DHT22;5402;50.004;8.246;2023-04-24T04:55:32;9.60;99.90
10702;DHT22;5402;50.004;8.246;2023-04-24T04:57:59;9.40;99.90
10702;DHT22;5402;50.004;8.246;2023-04-24T05:00:26;9.30;99.90
10702;DHT22;5402;50.004;8.246;2023-04-24T05:02:54;9.30;99.90
10702;DHT22;5402;50.004;8.246;2023-04-24T05:05:22;9.30;99.90
10702;DHT22;5402;50.004;8.246;2023-04-24T05:07:49;9.20;99.90
10702;DHT22;5402;50.004;8.246;2023-04-24T05:10:16;9.40;99.90
10702;DHT22;5402;50.004;8.246;2023-04-24T05:12:42;9.20;99.90
10702;DHT22;5402;50.004;8.246;2023-04-24T05:15:10;9.20;99.90
10702;DHT22;5402;50.004;8.246;2023-04-24T05:17:37;9.20;99.90
10702;DHT22;5402;50.004;8.246;2023-04-24T05:20:06;9.20;99.90
10702;DHT22;5402;50.004;8.246;2023-04-24T05:22:34;9.20;99.90
10702;DHT22;5402;50.004;8.246;2023-04-24T05:25:01;9.20;99.90
10702;DHT22;5402;50.004;8.246;2023-04-24T05:27:31;9.50;99.90
10702;DHT22;5402;50.004;8.246;2023-04-24T05:29:58;9.30;99.90
10702;DHT22;5402;50.004;8.246;2023-04-24T05:32:24;9.30;99.90
10702;DHT22;5402;50.004;8.246;2023-04-24T05:34:52;9.40;99.90
10702;DHT22;5402;50.004;8.246;2023-04-24T05:37:19;9.50;99.90
10702;DHT22;5402;50.004;8.246;2023-04-24T05:39:47;9.50;99.90
10702;DHT22;5402;50.004;8.246;2023-04-24T05:42:14;9.40;99.90
10702;DHT22;5402;50.004;8.246;2023-04-24T05:44:40;9.40;99.90
10702;DHT22;5402;50.004;8.246;2023-04-24T05:47:07;9.50;99.90
10702;DHT22;5402;50.004;8.246;2023-04-24T05:49:34;9.50;99.90
10702;DHT22;5402;50.004;8.246;2023-04-24T05:52:00;9.70;99.90
10702;DHT22;5402;50.004;8.246;2023-04-24T05:54:29;9.70;99.90
10702;DHT22;5402;50.004;8.246;2023-04-24T05:56:57;9.60;99.90
10702;DHT22;5402;50.004;8.246;2023-04-24T05:59:24;9.70;99.90
10702;DHT22;5402;50.004;8.246;2023-04-24T06:01:51;9.80;99.90
10702;DHT22;5402;50.004;8.246;2023-04-24T06:04:17;9.70;99.90
10702;DHT22;5402;50.004;8.246;2023-04-24T06:06:44;9.70;99.90
10702;DHT22;5402;50.004;8.246;2023-04-24T06:09:11;9.80;99.90
10702;DHT22;5402;50.004;8.246;2023-04-24T06:11:38;9.80;99.90
10702;DHT22;5402;50.004;8.246;2023-04-24T06:14:06;9.70;99.90
10702;DHT22;5402;50.004;8.246;2023-04-24T06:16:33;9.80;99.90
10702;DHT22;5402;50.004;8.246;2023-04-24T06:18:59;9.80;99.90
10702;DHT22;5402;50.004;8.246;2023-04-24T06:21:26;9.70;99.90
10702;DHT22;5402;50.004;8.246;2023-04-24T06:23:53;9.70;99.90
10702;DHT22;5402;50.004;8.246;2023-04-24T06:26:21;9.70;99.90
10702;DHT22;5402;50.004;8.246;2023-04-24T06:28:50;9.80;99.90
10702;DHT22;5402;50.004;8.246;2023-04-24T06:31:18;9.90;99.90
10702;DHT22;5402;50.004;8.246;2023-04-24T06:33:45;10.00;99.90
10702;DHT22;5402;50.004;8.246;2023-04-24T06:36:11;10.00;99.90
10702;DHT22;5402;50.004;8.246;2023-04-24T06:38:38;10.10;99.90
10702;DHT22;5402;50.004;8.246;2023-04-24T06:41:05;10.10;99.90
10702;DHT22;5402;50.004;8.246;2023-04-24T06:43:32;10.10;99.90
10702;DHT22;5402;50.004;8.246;2023-04-24T06:46:00;10.20;99.90
10702;DHT22;5402;50.004;8.246;2023-04-24T06:48:30;10.20;99.90
10702;DHT22;5402;50.004;8.246;2023-04-24T06:50:56;10.30;99.90
10702;DHT22;5402;50.004;8.246;2023-04-24T06:53:23;10.30;99.90
10702;DHT22;5402;50.004;8.246;2023-04-24T06:55:50;10.30;99.90
10702;DHT22;5402;50.004;8.246;2023-04-24T06:58:17;10.30;99.90
10702;DHT22;5402;50.004;8.246;2023-04-24T07:00:44;10.40;99.90
10702;DHT22;5402;50.004;8.246;2023-04-24T07:03:11;10.40;99.90
10702;DHT22;5402;50.004;8.246;2023-04-24T07:05:39;10.70;99.90
10702;DHT22;5402;50.004;8.246;2023-04-24T07:08:07;10.50;99.90
10702;DHT22;5402;50.004;8.246;2023-04-24T07:10:36;10.60;99.90
10702;DHT22;5402;50.004;8.246;2023-04-24T07:13:03;10.60;99.90
10702;DHT22;5402;50.004;8.246;2023-04-24T07:15:30;10.70;99.90
10702;DHT22;5402;50.004;8.246;2023-04-24T07:17:57;10.70;99.90
10702;DHT22;5402;50.004;8.246;2023-04-24T07:20:24;10.80;99.90
10702;DHT22;5402;50.004;8.246;2023-04-24T07:22:52;11.00;99.90
10702;DHT22;5402;50.004;8.246;2023-04-24T07:25:20;11.20;99.90
10702;DHT22;5402;50.004;8.246;2023-04-24T07:27:47;11.30;99.90
10702;DHT22;5402;50.004;8.246;2023-04-24T07:30:14;11.40;99.90
10702;DHT22;5402;50.004;8.246;2023-04-24T07:32:41;11.50;99.90
10702;DHT22;5402;50.004;8.246;2023-04-24T07:35:09;11.70;99.90
10702;DHT22;5402;50.004;8.246;2023-04-24T07:37:37;11.90;99.90
10702;DHT22;5402;50.004;8.246;2023-04-24T07:40:07;11.80;99.90
10702;DHT22;5402;50.004;8.246;2023-04-24T07:42:33;12.00;99.90
10702;DHT22;5402;50.004;8.246;2023-04-24T07:45:01;12.20;99.90
10702;DHT22;5402;50.004;8.246;2023-04-24T07:47:28;12.20;99.90
10702;DHT22;5402;50.004;8.246;2023-04-24T07:49:55;12.20;99.90
10702;DHT22;5402;50.004;8.246;2023-04-24T07:52:22;12.40;99.90
10702;DHT22;5402;50.004;8.246;2023-04-24T07:54:49;12.40;99.90
10702;DHT22;5402;50.004;8.246;2023-04-24T07:57:19;12.40;99.90
10702;DHT22;5402;50.004;8.246;2023-04-24T07:59:47;12.40;99.90
10702;DHT22;5402;50.004;8.246;2023-04-24T08:02:14;12.70;99.90
10702;DHT22;5402;50.004;8.246;2023-04-24T08:04:41;12.70;99.90
10702;DHT22;5402;50.004;8.246;2023-04-24T08:07:07;12.60;99.90
10702;DHT22;5402;50.004;8.246;2023-04-24T08:09:34;12.60;99.90
10702;DHT22;5402;50.004;8.246;2023-04-24T08:12:01;12.30;99.90
10702;DHT22;5402;50.004;8.246;2023-04-24T08:14:29;12.50;99.90
10702;DHT22;5402;50.004;8.246;2023-04-24T08:16:56;12.60;99.90
10702;DHT22;5402;50.004;8.246;2023-04-24T08:19:26;12.40;99.90
10702;DHT22;5402;50.004;8.246;2023-04-24T08:21:52;12.40;99.90
10702;DHT22;5402;50.004;8.246;2023-04-24T08:24:19;12.50;99.90
10702;DHT22;5402;50.004;8.246;2023-04-24T08:26:46;12.60;99.90
10702;DHT22;5402;50.004;8.246;2023-04-24T08:29:15;12.30;99.90
10702;DHT22;5402;50.004;8.246;2023-04-24T08:31:43;12.10;99.90
10702;DHT22;5402;50.004;8.246;2023-04-24T08:34:10;11.70;99.90
10702;DHT22;5402;50.004;8.246;2023-04-24T08:36:37;11.60;99.90
10702;DHT22;5402;50.004;8.246;2023-04-24T08:39:06;11.50;99.90
10702;DHT22;5402;50.004;8.246;2023-04-24T08:41:34;11.50;99.90
10702;DHT22;5402;50.004;8.246;2023-04-24T08:44:02;11.40;99.90
10702;DHT22;5402;50.004;8.246;2023-04-24T08:46:30;11.30;99.90
10702;DHT22;5402;50.004;8.246;2023-04-24T08:48:58;11.20;99.90
10702;DHT22;5402;50.004;8.246;2023-04-24T08:51:26;11.40;99.90
10702;DHT22;5402;50.004;8.246;2023-04-24T08:53:54;11.70;99.90
10702;DHT22;5402;50.004;8.246;2023-04-24T08:56:22;11.90;99.90
10702;DHT22;5402;50.004;8.246;2023-04-24T08:58:50;11.90;99.90
10702;DHT22;5402;50.004;8.246;2023-04-24T09:01:18;12.00;99.90
10702;DHT22;5402;50.004;8.246;2023-04-24T09:03:47;12.20;99.90
10702;DHT22;5402;50.004;8.246;2023-04-24T09:06:17;12.00;99.90
10702;DHT22;5402;50.004;8.246;2023-04-24T09:08:45;12.30;99.90
10702;DHT22;5402;50.004;8.246;2023-04-24T09:11:18;11.90;99.90
10702;DHT22;5402;50.004;8.246;2023-04-24T09:13:45;12.10;99.90
10702;DHT22;5402;50.004;8.246;2023-04-24T09:16:12;11.80;99.90
10702;DHT22;5402;50.004;8.246;2023-04-24T09:18:41;11.70;99.90
10702;DHT22;5402;50.004;8.246;2023-04-24T09:21:09;11.80;99.90
10702;DHT22;5402;50.004;8.246;2023-04-24T09:23:37;12.00;99.90
10702;DHT22;5402;50.004;8.246;2023-04-24T09:26:05;11.70;99.90
10702;DHT22;5402;50.004;8.246;2023-04-24T09:28:34;11.80;99.90
10702;DHT22;5402;50.004;8.246;2023-04-24T09:31:06;11.80;99.90
10702;DHT22;5402;50.004;8.246;2023-04-24T09:33:33;11.80;99.90
10702;DHT22;5402;50.004;8.246;2023-04-24T09:36:00;12.00;99.90
10702;DHT22;5402;50.004;8.246;2023-04-24T09:38:32;12.00;99.90
10702;DHT22;5402;50.004;8.246;2023-04-24T09:41:01;12.00;99.90
10702;DHT22;5402;50.004;8.246;2023-04-24T09:43:29;12.10;99.90
10702;DHT22;5402;50.004;8.246;2023-04-24T09:45:59;12.10;99.90
10702;DHT22;5402;50.004;8.246;2023-04-24T09:48:33;11.80;99.90
10702;DHT22;5402;50.004;8.246;2023-04-24T09:51:00;11.70;99.90
10702;DHT22;5402;50.004;8.246;2023-04-24T09:53:29;11.70;99.90
10702;DHT22;5402;50.004;8.246;2023-04-24T09:55:56;11.70;99.90
10702;DHT22;5402;50.004;8.246;2023-04-24T09:58:31;11.60;99.90
10702;DHT22;5402;50.004;8.246;2023-04-24T10:00:57;11.50;99.90
10702;DHT22;5402;50.004;8.246;2023-04-24T10:03:25;11.40;99.90
10702;DHT22;5402;50.004;8.246;2023-04-24T10:05:53;11.40;99.90
10702;DHT22;5402;50.004;8.246;2023-04-24T10:08:20;11.30;99.90
10702;DHT22;5402;50.004;8.246;2023-04-24T10:10:47;11.30;99.90
10702;DHT22;5402;50.004;8.246;2023-04-24T10:13:15;11.30;99.90
10702;DHT22;5402;50.004;8.246;2023-04-24T10:15:43;11.30;99.90
10702;DHT22;5402;50.004;8.246;2023-04-24T10:18:11;11.50;99.90
10702;DHT22;5402;50.004;8.246;2023-04-24T10:20:39;11.50;99.90
10702;DHT22;5402;50.004;8.246;2023-04-24T10:23:07;11.50;99.90
10702;DHT22;5402;50.004;8.246;2023-04-24T10:25:37;11.50;99.90
10702;DHT22;5402;50.004;8.246;2023-04-24T10:28:04;11.30;99.90
10702;DHT22;5402;50.004;8.246;2023-04-24T10:30:32;10.80;99.90
10702;DHT22;5402;50.004;8.246;2023-04-24T10:33:03;10.50;99.90
10702;DHT22;5402;50.004;8.246;2023-04-24T10:35:31;10.50;99.90
10702;DHT22;5402;50.004;8.246;2023-04-24T10:38:01;10.60;99.90
10702;DHT22;5402;50.004;8.246;2023-04-24T10:40:31;10.80;99.90
10702;DHT22;5402;50.004;8.246;2023-04-24T10:42:58;11.00;99.90
10702;DHT22;5402;50.004;8.246;2023-04-24T10:45:25;11.20;99.90
10702;DHT22;5402;50.004;8.246;2023-04-24T10:47:53;11.60;99.90
10702;DHT22;5402;50.004;8.246;2023-04-24T10:50:21;11.90;99.90
10702;DHT22;5402;50.004;8.246;2023-04-24T10:52:49;12.10;99.90
10702;DHT22;5402;50.004;8.246;2023-04-24T10:55:17;12.00;99.90
10702;DHT22;5402;50.004;8.246;2023-04-24T10:58:03;11.90;99.90
10702;DHT22;5402;50.004;8.246;2023-04-24T11:00:30;11.90;99.90
10702;DHT22;5402;50.004;8.246;2023-04-24T11:02:57;11.70;99.90
10702;DHT22;5402;50.004;8.246;2023-04-24T11:05:50;11.30;99.90
10702;DHT22;5402;50.004;8.246;2023-04-24T11:08:26;11.30;99.90
10702;DHT22;5402;50.004;8.246;2023-04-24T11:14:06;11.60;99.90
10702;DHT22;5402;50.004;8.246;2023-04-24T11:16:43;11.90;99.90
10702;DHT22;5402;50.004;8.246;2023-04-24T11:19:20;12.20;99.90
10702;DHT22;5402;50.004;8.246;2023-04-24T11:21:55;12.30;99.90
10702;DHT22;5402;50.004;8.246;2023-04-24T11:24:31;12.30;99.90
10702;DHT22;5402;50.004;8.246;2023-04-24T11:27:05;12.10;99.90
10702;DHT22;5402;50.004;8.246;2023-04-24T11:29:41;12.60;99.90
10702;DHT22;5402;50.004;8.246;2023-04-24T11:35:00;13.30;99.90
10702;DHT22;5402;50.004;8.246;2023-04-24T11:37:33;13.40;99.90
10702;DHT22;5402;50.004;8.246;2023-04-24T11:40:00;13.50;99.90
10702;DHT22;5402;50.004;8.246;2023-04-24T11:42:27;14.00;99.90
10702;DHT22;5402;50.004;8.246;2023-04-24T11:44:55;14.20;99.90
10702;DHT22;5402;50.004;8.246;2023-04-24T11:47:28;14.00;99.90
10702;DHT22;5402;50.004;8.246;2023-04-24T11:49:55;14.30;99.90
10702;DHT22;5402;50.004;8.246;2023-04-24T11:52:21;14.50;99.90
10702;DHT22;5402;50.004;8.246;2023-04-24T11:54:50;14.20;99.90
10702;DHT22;5402;50.004;8.246;2023-04-24T11:57:19;13.60;99.90
10702;DHT22;5402;50.004;8.246;2023-04-24T11:59:46;11.60;99.90
10702;DHT22;5402;50.004;8.246;2023-04-24T12:02:20;11.10;99.90
10702;DHT22;5402;50.004;8.246;2023-04-24T12:04:48;10.70;99.90
10702;DHT22;5402;50.004;8.246;2023-04-24T12:07:14;10.80;99.90
10702;DHT22;5402;50.004;8.246;2023-04-24T12:09:42;10.80;99.90
10702;DHT22;5402;50.004;8.246;2023-04-24T12:12:11;11.10;99.90
10702;DHT22;5402;50.004;8.246;2023-04-24T12:14:46;11.20;99.90
10702;DHT22;5402;50.004;8.246;2023-04-24T12:17:13;11.40;99.90
10702;DHT22;5402;50.004;8.246;2023-04-24T12:19:45;11.70;99.90
10702;DHT22;5402;50.004;8.246;2023-04-24T12:22:12;11.80;99.90
10702;DHT22;5402;50.004;8.246;2023-04-24T12:24:57;12.10;99.90
10702;DHT22;5402;50.004;8.246;2023-04-24T12:27:26;12.10;99.90
10702;DHT22;5402;50.004;8.246;2023-04-24T12:29:53;12.40;99.90
10702;DHT22;5402;50.004;8.246;2023-04-24T12:32:20;12.50;99.90
10702;DHT22;5402;50.004;8.246;2023-04-24T12:34:48;12.60;99.90
10702;DHT22;5402;50.004;8.246;2023-04-24T12:37:15;13.00;99.90
10702;DHT22;5402;50.004;8.246;2023-04-24T12:39:57;12.90;99.90
10702;DHT22;5402;50.004;8.246;2023-04-24T12:42:27;13.50;99.90
10702;DHT22;5402;50.004;8.246;2023-04-24T12:44:57;13.90;99.90
10702;DHT22;5402;50.004;8.246;2023-04-24T12:47:25;13.70;99.90
10702;DHT22;5402;50.004;8.246;2023-04-24T12:49:51;13.50;99.90
10702;DHT22;5402;50.004;8.246;2023-04-24T12:52:18;13.60;99.90
10702;DHT22;5402;50.004;8.246;2023-04-24T12:54:46;14.00;99.90
10702;DHT22;5402;50.004;8.246;2023-04-24T12:57:12;14.10;99.90
10702;DHT22;5402;50.004;8.246;2023-04-24T12:59:41;13.90;99.90
10702;DHT22;5402;50.004;8.246;2023-04-24T13:02:07;14.00;99.90
10702;DHT22;5402;50.004;8.246;2023-04-24T13:04:35;14.00;99.90
10702;DHT22;5402;50.004;8.246;2023-04-24T13:07:02;14.00;99.90
10702;DHT22;5402;50.004;8.246;2023-04-24T13:09:30;14.00;99.90
10702;DHT22;5402;50.004;8.246;2023-04-24T13:11:57;14.00;99.90
10702;DHT22;5402;50.004;8.246;2023-04-24T13:14:24;13.70;99.90
10702;DHT22;5402;50.004;8.246;2023-04-24T13:16:52;13.70;99.90
10702;DHT22;5402;50.004;8.246;2023-04-24T13:19:19;13.30;99.90
10702;DHT22;5402;50.004;8.246;2023-04-24T13:21:45;13.10;99.90
10702;DHT22;5402;50.004;8.246;2023-04-24T13:24:12;12.70;99.90
10702;DHT22;5402;50.004;8.246;2023-04-24T13:26:41;12.30;99.90
10702;DHT22;5402;50.004;8.246;2023-04-24T13:29:08;12.10;99.90
10702;DHT22;5402;50.004;8.246;2023-04-24T13:31:34;12.10;99.90
10702;DHT22;5402;50.004;8.246;2023-04-24T13:34:02;12.00;99.90
10702;DHT22;5402;50.004;8.246;2023-04-24T13:36:29;12.10;99.90
10702;DHT22;5402;50.004;8.246;2023-04-24T13:38:57;12.30;99.90
10702;DHT22;5402;50.004;8.246;2023-04-24T13:41:23;12.60;99.90
10702;DHT22;5402;50.004;8.246;2023-04-24T13:43:50;12.80;99.90
10702;DHT22;5402;50.004;8.246;2023-04-24T13:46:17;12.80;99.90
10702;DHT22;5402;50.004;8.246;2023-04-24T13:48:43;13.10;99.90
10702;DHT22;5402;50.004;8.246;2023-04-24T13:51:11;13.30;99.90
10702;DHT22;5402;50.004;8.246;2023-04-24T13:53:38;13.30;99.90
10702;DHT22;5402;50.004;8.246;2023-04-24T13:56:05;13.40;99.90
10702;DHT22;5402;50.004;8.246;2023-04-24T13:58:32;13.40;99.90
10702;DHT22;5402;50.004;8.246;2023-04-24T14:00:59;13.50;99.90
10702;DHT22;5402;50.004;8.246;2023-04-24T14:03:25;13.30;99.90
10702;DHT22;5402;50.004;8.246;2023-04-24T14:05:52;13.40;99.90
10702;DHT22;5402;50.004;8.246;2023-04-24T14:08:20;13.30;99.90
10702;DHT22;5402;50.004;8.246;2023-04-24T14:10:47;13.30;99.90
10702;DHT22;5402;50.004;8.246;2023-04-24T14:13:13;13.50;99.90
10702;DHT22;5402;50.004;8.246;2023-04-24T14:15:40;13.60;99.90
10702;DHT22;5402;50.004;8.246;2023-04-24T14:18:07;13.60;99.90
10702;DHT22;5402;50.004;8.246;2023-04-24T14:20:34;13.60;99.90
10702;DHT22;5402;50.004;8.246;2023-04-24T14:23:00;13.60;99.90
10702;DHT22;5402;50.004;8.246;2023-04-24T14:25:29;13.70;99.90
10702;DHT22;5402;50.004;8.246;2023-04-24T14:27:56;13.80;99.90
10702;DHT22;5402;50.004;8.246;2023-04-24T14:30:23;13.80;99.90
10702;DHT22;5402;50.004;8.246;2023-04-24T14:32:49;13.90;99.90
10702;DHT22;5402;50.004;8.246;2023-04-24T14:35:16;14.00;99.90
10702;DHT22;5402;50.004;8.246;2023-04-24T14:37:43;13.90;99.90
10702;DHT22;5402;50.004;8.246;2023-04-24T14:40:10;13.90;99.90
10702;DHT22;5402;50.004;8.246;2023-04-24T14:42:38;13.80;99.90
10702;DHT22;5402;50.004;8.246;2023-04-24T14:45:06;13.90;99.90
10702;DHT22;5402;50.004;8.246;2023-04-24T14:47:34;13.80;99.90
10702;DHT22;5402;50.004;8.246;2023-04-24T14:50:00;13.90;99.90
10702;DHT22;5402;50.004;8.246;2023-04-24T14:52:27;13.80;99.90
10702;DHT22;5402;50.004;8.246;2023-04-24T14:54:54;13.80;99.90
10702;DHT22;5402;50.004;8.246;2023-04-24T14:57:22;14.00;99.90
10702;DHT22;5402;50.004;8.246;2023-04-24T14:59:50;13.90;99.90
10702;DHT22;5402;50.004;8.246;2023-04-24T15:02:16;14.10;99.90
10702;DHT22;5402;50.004;8.246;2023-04-24T15:04:43;13.90;99.90
10702;DHT22;5402;50.004;8.246;2023-04-24T15:07:10;14.00;99.90
10702;DHT22;5402;50.004;8.246;2023-04-24T15:09:36;13.60;99.90
10702;DHT22;5402;50.004;8.246;2023-04-24T15:12:03;13.60;99.90
10702;DHT22;5402;50.004;8.246;2023-04-24T15:14:30;13.80;99.90
10702;DHT22;5402;50.004;8.246;2023-04-24T15:16:58;13.90;99.90
10702;DHT22;5402;50.004;8.246;2023-04-24T15:19:24;13.90;99.90
10702;DHT22;5402;50.004;8.246;2023-04-24T15:21:51;13.80;99.90
10702;DHT22;5402;50.004;8.246;2023-04-24T15:24:18;13.60;99.90
10702;DHT22;5402;50.004;8.246;2023-04-24T15:26:44;13.50;99.90
10702;DHT22;5402;50.004;8.246;2023-04-24T15:29:11;13.50;99.90
10702;DHT22;5402;50.004;8.246;2023-04-24T15:31:38;13.30;99.90
10702;DHT22;5402;50.004;8.246;2023-04-24T15:34:06;13.50;99.90
10702;DHT22;5402;50.004;8.246;2023-04-24T15:36:34;13.50;99.90
10702;DHT22;5402;50.004;8.246;2023-04-24T15:39:01;13.50;99.90
10702;DHT22;5402;50.004;8.246;2023-04-24T15:41:28;13.40;99.90
10702;DHT22;5402;50.004;8.246;2023-04-24T15:43:54;13.50;99.90
10702;DHT22;5402;50.004;8.246;2023-04-24T15:46:21;13.50;99.90
10702;DHT22;5402;50.004;8.246;2023-04-24T15:48:48;13.50;99.90
10702;DHT22;5402;50.004;8.246;2023-04-24T15:51:16;13.30;99.90
10702;DHT22;5402;50.004;8.246;2023-04-24T15:53:43;13.30;99.90
10702;DHT22;5402;50.004;8.246;2023-04-24T15:56:11;13.20;99.90